Un Akdeniz — TCTD2 — position and weather

sailwx.info

Track history (hours):
 
Tides and Currents Weather Stations Pressure Air Temp Water Temp Dewpoint Dewpoint Depression Visibility Wind Speed Wind Dir Waves Ship Positions

Un Akdeniz

Last reported at 2015-Apr-28 10:33 UTC. Time now 2015-Apr-28 14:32 UTC.
Position N 38°28' E 015°30'.

Length 193 m; draft 6.5 m.

Type: Ship (hazmat cat A). MMSI: 271002572.

Date/timePositionNaut miles runAvg speedWind from/ knotsBaromVisibWave heightAir tempDewpointWater temp
2015-Apr-28 10:33N 38°28' E 015°30'1514.0
2015-Apr-28 09:27N 38°14' E 015°37'35618.6
2015-Apr-27 14:18N 36°24' E 022°43'3617.4
2015-Apr-27 12:14N 36°39' E 023°24'1519.7
2015-Apr-27 11:28N 36°51' E 023°34'2419.8
2015-Apr-27 10:15N 37°12' E 023°49'1419.8
2015-Apr-27 09:33N 37°24' E 023°59'2419.7
2015-Apr-27 08:20N 37°43' E 024°17'13619.5
2015-Apr-27 01:21N 39°42' E 025°42'134 3.6
2015-Apr-25 12:06N 37°40' E 024°30'1618.9
2015-Apr-25 11:16N 37°27' E 024°19'24713.9
2015-Apr-24 17:33N 39°02' E 019°29'1818.5
2015-Apr-24 16:33N 39°18' E 019°17'1818.5
2015-Apr-24 15:34N 39°34' E 019°05'1918.7
2015-Apr-24 14:34N 39°50' E 018°52'1918.8
2015-Apr-24 13:33N 40°06' E 018°39'2118.5
2015-Apr-24 12:26N 40°24' E 018°26'  
2015-Apr-21 11:34N 39°59' E 018°49'1918.6
2015-Apr-21 10:34N 39°43' E 019°02'1918.6
2015-Apr-21 09:32N 39°27' E 019°13'2018.9
2015-Apr-21 08:28N 39°09' E 019°27'23913.3
2015-Apr-20 14:25N 37°35' E 024°08'28317.7
2015-Apr-19 22:27N 40°51' E 028°31'1718.6
2015-Apr-19 21:32N 40°48' E 028°52'1818.0
2015-Apr-19 20:33N 40°51' E 029°16'1 0.5
2015-Apr-19 19:31N 40°51' E 029°16'0 0.0
2015-Apr-19 18:31N 40°51' E 029°16'0 0.0
2015-Apr-19 17:28N 40°51' E 029°16'0 0.0
2015-Apr-19 16:16N 40°51' E 029°16'0 0.0
2015-Apr-19 15:27N 40°51' E 029°16'0 0.0
2015-Apr-19 14:33N 40°51' E 029°16'0 0.0
2015-Apr-19 13:14N 40°51' E 029°16'0 0.0
2015-Apr-19 12:32N 40°51' E 029°16'3 2.7
2015-Apr-19 11:33N 40°51' E 029°13'1716.7
2015-Apr-19 10:32N 40°49' E 028°50'26016.9
2015-Apr-18 19:07N 37°57' E 024°38'1419.4
2015-Apr-18 18:25N 37°44' E 024°32'1819.6
2015-Apr-18 17:31N 37°29' E 024°21'1919.9
2015-Apr-18 16:33N 37°14' E 024°06'2020.0
2015-Apr-18 15:33N 36°58' E 023°51'2019.9
2015-Apr-18 14:32N 36°42' E 023°35'  
Track history (hours):
 
Tides and Currents Weather Stations Pressure Air Temp Water Temp Dewpoint Dewpoint Depression Visibility Wind Speed Wind Dir Waves Ship Positions

Un Akdeniz

Last reported at 2015-Apr-28 10:33 UTC. Time now 2015-Apr-28 14:32 UTC.
Position N 38°28' E 015°30'.

Length 193 m; draft 6.5 m.

Type: Ship (hazmat cat A). MMSI: 271002572.

Date/timePositionNaut miles runAvg speedWind from/ knotsBaromVisibWave heightAir tempDewpointWater temp
2015-Apr-28 10:33N 38°28' E 015°30'1514.0
2015-Apr-28 09:27N 38°14' E 015°37'35618.6
2015-Apr-27 14:18N 36°24' E 022°43'3617.4
2015-Apr-27 12:14N 36°39' E 023°24'1519.7
2015-Apr-27 11:28N 36°51' E 023°34'2419.8
2015-Apr-27 10:15N 37°12' E 023°49'1419.8
2015-Apr-27 09:33N 37°24' E 023°59'2419.7
2015-Apr-27 08:20N 37°43' E 024°17'13619.5
2015-Apr-27 01:21N 39°42' E 025°42'134 3.6
2015-Apr-25 12:06N 37°40' E 024°30'1618.9
2015-Apr-25 11:16N 37°27' E 024°19'24713.9
2015-Apr-24 17:33N 39°02' E 019°29'1818.5
2015-Apr-24 16:33N 39°18' E 019°17'1818.5
2015-Apr-24 15:34N 39°34' E 019°05'1918.7
2015-Apr-24 14:34N 39°50' E 018°52'1918.8
2015-Apr-24 13:33N 40°06' E 018°39'2118.5
2015-Apr-24 12:26N 40°24' E 018°26'  
2015-Apr-21 11:34N 39°59' E 018°49'1918.6
2015-Apr-21 10:34N 39°43' E 019°02'1918.6
2015-Apr-21 09:32N 39°27' E 019°13'2018.9
2015-Apr-21 08:28N 39°09' E 019°27'23913.3
2015-Apr-20 14:25N 37°35' E 024°08'28317.7
2015-Apr-19 22:27N 40°51' E 028°31'1718.6
2015-Apr-19 21:32N 40°48' E 028°52'1818.0
2015-Apr-19 20:33N 40°51' E 029°16'1 0.5
2015-Apr-19 19:31N 40°51' E 029°16'0 0.0
2015-Apr-19 18:31N 40°51' E 029°16'0 0.0
2015-Apr-19 17:28N 40°51' E 029°16'0 0.0
2015-Apr-19 16:16N 40°51' E 029°16'0 0.0
2015-Apr-19 15:27N 40°51' E 029°16'0 0.0
2015-Apr-19 14:33N 40°51' E 029°16'0 0.0
2015-Apr-19 13:14N 40°51' E 029°16'0 0.0
2015-Apr-19 12:32N 40°51' E 029°16'3 2.7
2015-Apr-19 11:33N 40°51' E 029°13'1716.7
2015-Apr-19 10:32N 40°49' E 028°50'26016.9
2015-Apr-18 19:07N 37°57' E 024°38'1419.4
2015-Apr-18 18:25N 37°44' E 024°32'1819.6
2015-Apr-18 17:31N 37°29' E 024°21'1919.9
2015-Apr-18 16:33N 37°14' E 024°06'2020.0
2015-Apr-18 15:33N 36°58' E 023°51'2019.9
2015-Apr-18 14:32N 36°42' E 023°35'  

Dump ship's entire track history